Time;durP1;ratioP1;P1;durP2;ratioP2;P2;SDS_P1;SDS_P2;PMS_P1;PMS_P2;Temp;Humidity;BMP_temperature;BMP_pressure;BME280_temperature;BME280_humidity;BME280_pressure;Samples;Min_cycle;Max_cycle;Signal;HPM_P1;HPM_P2
2023/07/11 00:01:46;;;;;;;3.67;2.40;;;27.80;64.20;;;;;;10057990;28;20037;-59
2023/07/11 00:06:37;;;;;;;5.13;2.42;;;27.60;64.30;;;;;;10052473;28;20048;-60
2023/07/11 00:11:28;;;;;;;3.97;2.38;;;27.60;64.40;;;;;;10039564;28;20033;-60
2023/07/11 00:16:19;;;;;;;3.10;2.40;;;27.60;64.40;;;;;;10058405;28;20037;-59
2023/07/11 00:21:10;;;;;;;6.43;2.90;;;27.60;64.40;;;;;;10045240;28;20026;-61
2023/07/11 00:26:01;;;;;;;3.75;2.30;;;27.50;64.60;;;;;;10046099;28;20145;-61
2023/07/11 00:30:52;;;;;;;4.70;2.67;;;27.50;64.90;;;;;;10052289;28;20025;-60
2023/07/11 00:35:49;;;;;;;3.38;2.50;;;27.40;64.80;;;;;;10059134;28;20578;-62
2023/07/11 00:40:45;;;;;;;5.43;4.25;;;27.40;65.00;;;;;;10062263;28;20021;-60
2023/07/11 00:46:06;;;;;;;5.05;2.67;;;27.40;65.20;;;;;;10053584;28;20030;-61
2023/07/11 00:50:56;;;;;;;4.18;2.60;;;27.30;65.40;;;;;;10061045;28;20029;-59
2023/07/11 00:55:47;;;;;;;3.65;2.97;;;27.20;65.40;;;;;;10071710;28;20033;-60
2023/07/11 01:00:38;;;;;;;4.57;2.55;;;27.10;65.70;;;;;;10066902;28;20091;-61
2023/07/11 01:05:29;;;;;;;5.20;2.78;;;27.10;65.90;;;;;;10069308;28;20076;-60
2023/07/11 01:10:20;;;;;;;6.60;2.58;;;27.30;65.90;;;;;;10060886;28;20037;-61
2023/07/11 01:15:10;;;;;;;4.00;2.55;;;27.40;65.90;;;;;;10058147;28;20037;-60
2023/07/11 01:20:05;;;;;;;6.63;2.58;;;27.40;66.00;;;;;;10060203;28;20400;-62
2023/07/11 01:25:17;;;;;;;2.92;2.10;;;27.30;66.30;;;;;;10074019;28;20204;-61
2023/07/11 01:30:11;;;;;;;4.32;2.58;;;27.30;66.60;;;;;;10061778;28;20033;-61
2023/07/11 01:35:03;;;;;;;6.73;2.47;;;27.30;66.70;;;;;;10063387;28;20127;-59
2023/07/11 01:39:54;;;;;;;3.25;2.38;;;27.20;66.90;;;;;;10065060;28;20124;-61
2023/07/11 01:44:45;;;;;;;4.55;2.60;;;27.10;67.20;;;;;;10058668;28;20152;-62
2023/07/11 01:49:35;;;;;;;3.88;2.20;;;27.00;67.40;;;;;;10056659;28;20033;-60
2023/07/11 01:54:26;;;;;;;3.50;2.30;;;27.00;67.50;;;;;;10058280;28;20549;-60
2023/07/11 01:59:16;;;;;;;5.18;2.60;;;26.90;67.70;;;;;;10054788;28;20037;-59
2023/07/11 02:04:07;;;;;;;5.03;2.47;;;26.80;68.00;;;;;;10066773;28;20049;-59
2023/07/11 02:08:58;;;;;;;5.20;2.88;;;26.70;68.40;;;;;;10061876;28;20179;-62
2023/07/11 02:13:48;;;;;;;5.38;2.63;;;26.70;68.70;;;;;;10059493;28;20052;-59
2023/07/11 02:18:39;;;;;;;3.03;2.10;;;26.60;69.00;;;;;;10085961;28;20416;-60
2023/07/11 02:23:29;;;;;;;6.85;2.95;;;26.50;69.40;;;;;;10060747;28;20404;-60
2023/07/11 02:28:21;;;;;;;4.68;3.22;;;26.60;69.60;;;;;;10060373;28;20028;-59
2023/07/11 02:33:12;;;;;;;7.13;3.60;;;26.70;69.90;;;;;;10056814;28;20050;-59
2023/07/11 02:38:02;;;;;;;4.43;3.50;;;26.60;70.30;;;;;;10069884;28;20519;-58
2023/07/11 02:42:53;;;;;;;5.20;2.83;;;26.50;70.80;;;;;;10058178;28;20036;-60
2023/07/11 02:47:44;;;;;;;6.47;2.80;;;26.50;71.00;;;;;;10055588;28;20079;-61
2023/07/11 02:52:35;;;;;;;4.00;2.80;;;26.40;71.20;;;;;;10061179;28;20514;-59
2023/07/11 02:57:25;;;;;;;6.85;2.97;;;26.40;71.60;;;;;;10060299;28;20044;-59
2023/07/11 03:02:16;;;;;;;3.75;3.22;;;26.20;71.80;;;;;;10055832;28;20062;-60
2023/07/11 03:07:06;;;;;;;7.82;3.33;;;26.20;72.10;;;;;;10044700;28;20026;-61
2023/07/11 03:11:57;;;;;;;3.40;2.63;;;26.20;72.30;;;;;;10045004;28;20500;-60
2023/07/11 03:16:51;;;;;;;5.63;3.20;;;26.20;72.40;;;;;;10055013;28;20070;-60
2023/07/11 03:21:41;;;;;;;4.70;3.13;;;26.10;72.80;;;;;;10052491;28;20029;-61
2023/07/11 03:26:32;;;;;;;5.75;2.97;;;26.10;73.00;;;;;;10053048;28;20063;-60
2023/07/11 03:31:23;;;;;;;6.63;3.33;;;25.90;73.40;;;;;;10062699;28;20032;-60
2023/07/11 03:36:13;;;;;;;5.88;3.55;;;25.70;73.80;;;;;;10057670;28;20037;-61
2023/07/11 03:41:04;;;;;;;4.50;3.15;;;25.70;74.20;;;;;;10059215;28;20109;-60
2023/07/11 03:45:55;;;;;;;5.18;3.17;;;25.60;74.40;;;;;;10061342;28;20153;-61
2023/07/11 03:50:45;;;;;;;5.50;3.58;;;25.60;74.60;;;;;;10053414;28;20033;-61
2023/07/11 03:55:36;;;;;;;4.53;3.42;;;25.60;75.00;;;;;;10056796;28;20067;-61
2023/07/11 04:00:27;;;;;;;5.68;4.07;;;25.60;75.10;;;;;;10060514;28;20029;-61
2023/07/11 04:05:17;;;;;;;5.60;3.47;;;25.60;75.10;;;;;;10058465;28;20049;-61
2023/07/11 04:10:09;;;;;;;4.97;3.83;;;25.70;75.50;;;;;;10050619;28;20029;-59
2023/07/11 04:14:59;;;;;;;6.55;3.75;;;25.70;75.60;;;;;;10048095;28;20049;-60
2023/07/11 04:19:51;;;;;;;5.03;3.78;;;25.60;75.90;;;;;;10048032;28;20025;-59
2023/07/11 04:24:41;;;;;;;6.45;3.60;;;25.50;76.20;;;;;;10055884;28;20603;-60
2023/07/11 04:29:32;;;;;;;5.53;3.88;;;25.70;76.50;;;;;;10054768;28;20112;-60
2023/07/11 04:34:22;;;;;;;6.95;3.72;;;25.70;76.50;;;;;;10053948;28;20072;-59
2023/07/11 04:39:13;;;;;;;4.05;3.58;;;25.50;76.80;;;;;;10055385;28;20034;-61
2023/07/11 04:44:04;;;;;;;6.10;3.90;;;25.60;76.80;;;;;;10052790;28;20037;-59
2023/07/11 04:48:54;;;;;;;5.28;3.72;;;25.50;77.30;;;;;;10060279;28;20037;-61
2023/07/11 04:53:45;;;;;;;7.80;3.10;;;25.40;77.70;;;;;;10060591;28;20041;-62
2023/07/11 04:58:37;;;;;;;6.53;4.10;;;25.50;77.90;;;;;;10056275;28;20025;-60
2023/07/11 05:03:28;;;;;;;6.95;3.80;;;25.40;78.00;;;;;;10043601;28;20046;-61
2023/07/11 05:08:18;;;;;;;6.45;3.72;;;25.40;78.20;;;;;;10053883;28;20033;-60
2023/07/11 05:13:09;;;;;;;5.43;3.72;;;25.50;78.40;;;;;;10051435;28;20521;-61
2023/07/11 05:17:59;;;;;;;5.25;3.47;;;25.50;78.40;;;;;;10049635;28;20029;-61
2023/07/11 05:22:50;;;;;;;5.10;3.97;;;25.60;78.80;;;;;;10050961;28;20045;-61
2023/07/11 05:27:41;;;;;;;6.43;4.07;;;25.60;78.80;;;;;;10055128;28;20119;-59
2023/07/11 05:32:31;;;;;;;4.65;3.78;;;25.70;79.00;;;;;;10066606;28;20422;-60
2023/07/11 05:37:23;;;;;;;8.52;4.95;;;25.80;79.00;;;;;;10064248;28;20088;-60
2023/07/11 05:42:13;;;;;;;7.43;4.50;;;25.90;79.10;;;;;;10063668;28;20040;-59
2023/07/11 05:47:04;;;;;;;5.80;4.00;;;25.90;79.30;;;;;;10056509;28;20478;-60
2023/07/11 05:51:55;;;;;;;6.82;4.47;;;26.10;79.30;;;;;;10051411;28;20041;-60
2023/07/11 05:56:46;;;;;;;7.00;4.60;;;26.10;79.30;;;;;;10053660;28;20471;-59
2023/07/11 06:01:36;;;;;;;10.43;5.00;;;26.10;79.50;;;;;;10055219;28;20022;-61
2023/07/11 06:06:27;;;;;;;8.85;4.63;;;26.10;79.40;;;;;;10050104;28;20287;-61
2023/07/11 06:11:17;;;;;;;12.00;4.78;;;26.10;79.70;;;;;;10042243;28;20041;-62
2023/07/11 06:16:13;;;;;;;5.90;4.25;;;26.00;79.80;;;;;;10062968;28;20381;-60
2023/07/11 06:21:06;;;;;;;7.55;4.55;;;25.90;80.10;;;;;;10060862;28;20033;-60
2023/07/11 06:25:57;;;;;;;8.98;4.28;;;26.00;80.40;;;;;;10060895;28;20030;-58
2023/07/11 06:30:48;;;;;;;7.25;3.97;;;26.20;80.20;;;;;;10060445;28;20157;-60
2023/07/11 06:35:40;;;;;;;9.82;4.30;;;26.20;80.00;;;;;;10049940;28;20051;-59
2023/07/11 06:40:31;;;;;;;11.98;4.40;;;26.10;80.30;;;;;;10049830;28;20041;-60
2023/07/11 06:45:22;;;;;;;7.53;3.90;;;26.00;80.50;;;;;;10053256;28;20175;-60
2023/07/11 06:50:13;;;;;;;19.58;5.22;;;26.00;80.40;;;;;;10052143;28;20108;-60
2023/07/11 06:55:04;;;;;;;6.00;4.13;;;26.20;80.00;;;;;;10055626;28;20045;-60
2023/07/11 06:59:54;;;;;;;6.00;3.90;;;26.30;79.40;;;;;;10058891;28;20924;-60
2023/07/11 07:04:45;;;;;;;7.25;3.90;;;26.60;79.30;;;;;;10057871;28;21052;-60
2023/07/11 07:09:35;;;;;;;9.23;3.83;;;26.60;79.00;;;;;;10060277;28;20013;-60
2023/07/11 07:14:26;;;;;;;8.00;3.70;;;26.70;78.70;;;;;;10059415;28;20120;-60
2023/07/11 07:19:17;;;;;;;7.20;4.00;;;26.90;78.40;;;;;;10060457;28;20029;-59
2023/07/11 07:24:08;;;;;;;6.55;4.45;;;27.10;77.90;;;;;;10057663;28;20091;-61
2023/07/11 07:28:59;;;;;;;8.05;3.05;;;27.20;77.60;;;;;;10057394;28;20025;-60
2023/07/11 07:33:49;;;;;;;6.30;3.08;;;27.40;77.40;;;;;;10057985;28;20048;-61
2023/07/11 07:38:40;;;;;;;8.88;5.63;;;27.30;77.10;;;;;;10057796;28;20037;-60
2023/07/11 07:43:31;;;;;;;6.15;4.65;;;27.40;77.00;;;;;;10062309;28;20112;-60
2023/07/11 07:48:23;;;;;;;5.07;3.17;;;27.40;76.60;;;;;;10051278;28;20030;-59
2023/07/11 07:53:15;;;;;;;5.50;2.95;;;27.60;76.30;;;;;;10053980;28;20389;-60
2023/07/11 07:58:06;;;;;;;6.40;3.40;;;27.60;76.20;;;;;;10057309;28;20057;-61
2023/07/11 08:02:56;;;;;;;6.90;3.20;;;27.70;76.20;;;;;;10058453;28;20046;-62
2023/07/11 08:07:47;;;;;;;3.60;3.20;;;27.80;76.00;;;;;;10054278;28;20025;-62
2023/07/11 08:12:38;;;;;;;4.90;2.90;;;27.80;75.80;;;;;;10046609;28;20140;-61
2023/07/11 08:17:29;;;;;;;5.18;3.20;;;28.10;75.50;;;;;;10047095;28;20051;-60
2023/07/11 08:22:20;;;;;;;4.53;3.10;;;28.20;75.30;;;;;;10054539;28;20083;-59
2023/07/11 08:27:11;;;;;;;5.82;3.80;;;28.50;75.20;;;;;;10049409;28;20025;-60
2023/07/11 08:32:01;;;;;;;4.50;3.42;;;28.70;75.10;;;;;;10057332;28;20558;-63
2023/07/11 08:36:52;;;;;;;4.20;3.10;;;28.90;75.10;;;;;;10057244;28;20120;-62
2023/07/11 08:41:46;;;;;;;7.28;3.22;;;28.90;75.50;;;;;;10063510;28;20430;-61
2023/07/11 08:46:52;;;;;;;4.63;2.85;;;29.00;74.60;;;;;;10049438;28;20116;-61
2023/07/11 08:51:50;;;;;;;4.85;3.10;;;28.90;74.30;;;;;;10050602;28;20041;-60
2023/07/11 08:56:43;;;;;;;4.72;3.40;;;29.00;74.00;;;;;;10048651;28;20025;-61
2023/07/11 09:01:58;;;;;;;5.23;3.23;;;29.10;73.70;;;;;;10058046;28;20033;-60
2023/07/11 09:06:54;;;;;;;12.98;4.38;;;29.20;73.40;;;;;;10049078;28;20264;-60
2023/07/11 09:11:54;;;;;;;12.40;4.90;;;29.30;73.40;;;;;;10065613;28;20045;-60
2023/07/11 09:17:01;;;;;;;7.55;3.60;;;29.60;73.10;;;;;;10059623;28;20048;-61
2023/07/11 09:22:16;;;;;;;5.82;3.13;;;29.80;73.00;;;;;;10066945;28;20025;-61
2023/07/11 09:27:44;;;;;;;5.38;3.42;;;30.00;72.90;;;;;;10058978;28;20363;-61
2023/07/11 09:32:35;;;;;;;5.97;3.83;;;30.10;72.80;;;;;;10059710;28;20045;-60
2023/07/11 09:37:34;;;;;;;5.05;3.20;;;30.30;72.80;;;;;;10061318;28;20119;-62
2023/07/11 09:42:28;;;;;;;4.53;3.72;;;30.50;72.70;;;;;;10062986;28;20037;-60
2023/07/11 09:47:19;;;;;;;5.95;3.97;;;30.50;72.70;;;;;;10060928;28;20029;-60
2023/07/11 09:52:13;;;;;;;8.23;4.30;;;30.60;72.70;;;;;;10053480;28;20160;-61
2023/07/11 09:57:10;;;;;;;6.00;4.10;;;30.70;72.90;;;;;;10055247;28;20026;-61
2023/07/11 10:02:04;;;;;;;6.47;3.47;;;30.80;72.90;;;;;;10055249;28;20038;-60
2023/07/11 10:07:03;;;;;;;5.18;3.78;;;30.90;72.90;;;;;;10058515;28;20964;-60
2023/07/11 10:12:25;;;;;;;8.40;3.67;;;31.00;72.90;;;;;;10062659;28;20104;-60
2023/07/11 10:17:36;;;;;;;9.77;4.22;;;31.20;72.80;;;;;;10052186;28;20061;-63
2023/07/11 10:22:29;;;;;;;5.30;3.25;;;31.40;72.60;;;;;;10058674;28;20399;-60
2023/07/11 10:27:27;;;;;;;4.80;3.60;;;31.50;72.60;;;;;;10060016;28;20487;-59
2023/07/11 10:32:30;;;;;;;5.13;3.65;;;31.70;72.40;;;;;;10062028;28;20065;-61
2023/07/11 10:37:40;;;;;;;5.00;3.53;;;31.90;71.80;;;;;;10060186;28;20030;-62
2023/07/11 10:42:42;;;;;;;4.05;2.70;;;31.90;71.60;;;;;;10059421;28;20064;-63
2023/07/11 10:47:38;;;;;;;3.85;3.30;;;32.00;71.20;;;;;;10055555;28;20034;-61
2023/07/11 10:52:31;;;;;;;5.25;3.50;;;32.30;70.70;;;;;;10051871;28;20048;-60
2023/07/11 10:57:36;;;;;;;8.95;4.72;;;32.40;70.40;;;;;;10054235;28;20095;-61
2023/07/11 11:02:45;;;;;;;6.25;3.70;;;32.30;70.40;;;;;;10054801;28;20049;-59
2023/07/11 11:07:43;;;;;;;8.93;4.13;;;32.40;70.20;;;;;;10058534;28;20021;-61
2023/07/11 11:12:43;;;;;;;5.13;3.50;;;32.40;70.20;;;;;;10045443;28;20049;-60
2023/07/11 11:17:40;;;;;;;4.85;3.42;;;32.80;70.10;;;;;;10046487;28;20047;-59
2023/07/11 11:22:54;;;;;;;5.68;3.80;;;32.90;70.00;;;;;;10057287;28;20025;-60
2023/07/11 11:28:03;;;;;;;6.22;3.63;;;33.00;69.70;;;;;;10028216;28;20566;-59
2023/07/11 11:32:59;;;;;;;5.30;3.92;;;32.90;69.80;;;;;;10052209;28;20075;-61
2023/07/11 11:38:04;;;;;;;4.97;3.72;;;33.00;69.50;;;;;;10058538;28;20045;-61
2023/07/11 11:43:00;;;;;;;4.15;3.75;;;33.30;69.00;;;;;;10059115;28;20043;-59
2023/07/11 11:47:53;;;;;;;7.03;3.63;;;33.20;68.90;;;;;;10047813;28;20018;-59
2023/07/11 11:52:44;;;;;;;6.45;3.72;;;33.40;68.40;;;;;;10054824;28;20051;-60
2023/07/11 11:57:36;;;;;;;8.50;3.83;;;33.50;68.40;;;;;;10059586;28;20432;-59
2023/07/11 12:02:33;;;;;;;5.75;3.88;;;33.50;68.30;;;;;;10056591;28;20060;-59
2023/07/11 12:07:28;;;;;;;11.75;4.53;;;33.50;68.50;;;;;;10056965;28;20033;-60
2023/07/11 12:13:04;;;;;;;5.88;4.07;;;33.90;68.60;;;;;;10043481;28;20093;-60
2023/07/11 12:18:12;;;;;;;5.03;3.63;;;34.10;68.40;;;;;;10034397;28;20049;-59
2023/07/11 12:23:03;;;;;;;8.80;4.65;;;34.50;68.30;;;;;;10050747;28;20037;-60
2023/07/11 12:27:54;;;;;;;6.15;3.80;;;35.00;68.40;;;;;;10050752;28;20029;-59
2023/07/11 12:32:51;;;;;;;7.35;4.25;;;35.30;68.00;;;;;;10055189;28;20291;-61
2023/07/11 12:38:00;;;;;;;4.70;4.18;;;35.70;68.10;;;;;;10056261;28;20037;-60
2023/07/11 12:42:54;;;;;;;5.47;4.03;;;36.00;67.60;;;;;;10067253;28;20121;-60
2023/07/11 12:47:48;;;;;;;5.43;3.92;;;36.30;67.80;;;;;;10066234;28;20033;-61
2023/07/11 12:52:39;;;;;;;5.97;3.90;;;36.90;67.70;;;;;;10070666;28;20041;-60
2023/07/11 12:57:31;;;;;;;5.10;4.35;;;37.10;67.00;;;;;;10066405;28;20052;-60
2023/07/11 13:02:27;;;;;;;7.22;4.80;;;37.30;66.30;;;;;;10083894;28;20037;-59
2023/07/11 13:07:25;;;;;;;7.03;4.47;;;38.10;65.60;;;;;;10069231;28;20165;-60
2023/07/11 13:12:19;;;;;;;7.28;4.45;;;39.20;64.50;;;;;;10069270;28;20037;-60
2023/07/11 13:17:22;;;;;;;6.43;4.53;;;40.20;63.30;;;;;;10064264;28;20021;-60
2023/07/11 13:22:15;;;;;;;6.25;4.50;;;40.80;62.20;;;;;;10063781;28;20036;-59
2023/07/11 13:27:13;;;;;;;4.75;4.13;;;41.00;61.70;;;;;;10065291;28;20032;-60
2023/07/11 13:32:11;;;;;;;12.63;4.70;;;41.90;61.00;;;;;;10069293;28;20037;-60
2023/07/11 13:37:07;;;;;;;5.45;4.75;;;42.30;59.80;;;;;;10070048;28;20037;-59
2023/07/11 13:42:02;;;;;;;4.82;4.20;;;42.00;59.10;;;;;;10072352;28;20057;-60
2023/07/11 13:46:53;;;;;;;4.90;3.80;;;42.40;58.30;;;;;;10062655;28;20561;-59
2023/07/11 13:51:43;;;;;;;6.10;4.35;;;43.00;57.40;;;;;;10065998;28;20086;-60
2023/07/11 13:56:34;;;;;;;6.25;4.20;;;43.50;56.90;;;;;;10061151;28;20061;-60
2023/07/11 14:01:25;;;;;;;4.95;4.45;;;41.60;57.10;;;;;;10061176;28;20053;-59
2023/07/11 14:06:17;;;;;;;5.90;4.43;;;39.80;58.50;;;;;;10060151;28;20533;-59
2023/07/11 14:11:29;;;;;;;6.90;4.57;;;40.60;57.50;;;;;;10060707;28;20073;-60
2023/07/11 14:16:19;;;;;;;6.13;4.03;;;42.40;55.40;;;;;;10044011;28;20418;-60
2023/07/11 14:21:15;;;;;;;7.75;5.43;;;43.30;54.80;;;;;;10062005;28;20037;-60
2023/07/11 14:26:06;;;;;;;6.03;5.13;;;43.40;54.10;;;;;;10060146;28;20096;-60
2023/07/11 14:31:00;;;;;;;5.43;4.25;;;43.00;54.30;;;;;;10064470;28;20065;-60
2023/07/11 14:35:51;;;;;;;5.32;4.43;;;42.80;54.20;;;;;;10062141;28;20033;-60
2023/07/11 14:40:42;;;;;;;5.95;4.45;;;42.90;54.00;;;;;;10060213;28;20394;-59
2023/07/11 14:45:33;;;;;;;5.75;4.45;;;42.80;53.80;;;;;;10056959;28;20025;-61
2023/07/11 14:50:29;;;;;;;5.80;4.10;;;41.70;54.30;;;;;;10050259;28;20055;-60
2023/07/11 14:55:22;;;;;;;6.28;4.82;;;40.10;55.40;;;;;;10061333;28;20053;-60
2023/07/11 15:00:15;;;;;;;9.25;6.13;;;38.70;56.50;;;;;;10058810;28;20032;-60
2023/07/11 15:05:18;;;;;;;9.20;4.90;;;38.10;56.90;;;;;;10048351;28;20128;-59
2023/07/11 15:10:09;;;;;;;6.10;4.80;;;37.40;57.50;;;;;;10059086;28;20017;-61
2023/07/11 15:15:00;;;;;;;6.50;4.82;;;37.00;57.80;;;;;;10063582;28;20191;-61
2023/07/11 15:19:51;;;;;;;6.22;4.78;;;36.90;58.20;;;;;;10060975;28;20010;-61
2023/07/11 15:24:44;;;;;;;5.90;4.47;;;36.90;58.40;;;;;;10075882;28;20040;-61
2023/07/11 15:29:34;;;;;;;6.50;4.90;;;36.90;58.60;;;;;;10063724;28;20033;-61
2023/07/11 15:34:26;;;;;;;7.00;4.72;;;37.20;58.60;;;;;;10063115;28;20458;-60
2023/07/11 15:39:17;;;;;;;8.45;4.95;;;37.10;58.70;;;;;;10057525;28;20052;-60
2023/07/11 15:44:37;;;;;;;6.18;4.05;;;36.30;59.30;;;;;;10059688;28;20403;-60
2023/07/11 15:49:27;;;;;;;7.68;5.55;;;35.00;61.60;;;;;;10055855;28;20037;-60
2023/07/11 15:54:18;;;;;;;6.22;3.72;;;35.10;61.30;;;;;;10053697;28;20498;-61
2023/07/11 15:59:14;;;;;;;4.70;3.33;;;38.50;58.90;;;;;;10056299;28;20095;-62
2023/07/11 16:04:13;;;;;;;7.43;4.00;;;40.60;56.80;;;;;;10060511;28;20113;-61
2023/07/11 16:09:28;;;;;;;5.82;3.92;;;38.60;58.00;;;;;;10054854;28;20037;-61
2023/07/11 16:14:20;;;;;;;3.25;2.95;;;37.90;58.50;;;;;;10049626;28;20113;-60
2023/07/11 16:19:19;;;;;;;4.30;3.10;;;37.00;59.60;;;;;;10048075;28;20056;-60
2023/07/11 16:24:19;;;;;;;3.63;2.88;;;38.40;57.60;;;;;;10056437;28;20341;-61
2023/07/11 16:29:18;;;;;;;3.20;2.67;;;37.20;58.30;;;;;;10055658;28;20494;-61
2023/07/11 16:34:27;;;;;;;3.42;2.85;;;35.70;59.60;;;;;;10057076;28;20044;-60
2023/07/11 16:39:29;;;;;;;4.07;2.97;;;40.00;55.80;;;;;;10060799;28;20456;-62
2023/07/11 16:44:22;;;;;;;3.90;2.80;;;41.20;53.80;;;;;;10056624;28;20037;-60
2023/07/11 16:49:16;;;;;;;4.28;2.38;;;39.80;54.90;;;;;;10056053;28;20033;-60
2023/07/11 16:54:17;;;;;;;5.63;2.80;;;37.10;57.10;;;;;;10047038;28;20128;-63
2023/07/11 16:59:17;;;;;;;5.28;3.25;;;36.50;57.30;;;;;;10055482;28;20172;-60
2023/07/11 17:04:12;;;;;;;3.65;2.45;;;38.60;55.10;;;;;;10054070;28;20064;-61
2023/07/11 17:09:21;;;;;;;4.68;3.13;;;41.90;52.30;;;;;;10052213;28;20093;-60
2023/07/11 17:14:13;;;;;;;4.75;3.17;;;41.60;52.00;;;;;;10046219;28;20422;-60
2023/07/11 17:19:11;;;;;;;6.93;3.42;;;38.20;55.40;;;;;;10056746;28;20088;-59
2023/07/11 17:24:02;;;;;;;6.18;3.10;;;36.50;56.60;;;;;;10061333;28;20057;-59
2023/07/11 17:28:53;;;;;;;6.30;3.33;;;35.50;57.10;;;;;;10060503;28;20032;-60
2023/07/11 17:33:43;;;;;;;7.63;3.70;;;35.20;57.40;;;;;;10062937;28;20029;-59
2023/07/11 17:38:35;;;;;;;8.07;2.78;;;34.90;57.40;;;;;;10062308;28;20029;-60
2023/07/11 17:43:26;;;;;;;5.75;3.03;;;34.70;57.60;;;;;;10056435;28;20017;-62
2023/07/11 17:48:23;;;;;;;3.97;2.50;;;34.20;58.20;;;;;;10055762;28;20029;-59
2023/07/11 17:53:14;;;;;;;4.80;2.72;;;33.70;58.80;;;;;;10049893;28;20112;-59
2023/07/11 17:58:22;;;;;;;5.35;3.10;;;33.60;59.00;;;;;;10059158;28;20407;-60
2023/07/11 18:03:12;;;;;;;4.00;3.58;;;33.50;59.40;;;;;;10061914;28;20049;-59
2023/07/11 18:08:03;;;;;;;5.15;3.15;;;33.40;59.40;;;;;;10065320;28;20044;-59
2023/07/11 18:12:55;;;;;;;3.40;3.05;;;33.20;60.20;;;;;;10065703;28;20036;-61
2023/07/11 18:17:46;;;;;;;4.63;3.03;;;33.00;60.60;;;;;;10064994;28;20072;-62
2023/07/11 18:22:37;;;;;;;5.60;3.28;;;33.00;61.10;;;;;;10076921;28;20033;-62
2023/07/11 18:27:29;;;;;;;4.15;3.40;;;32.80;61.80;;;;;;10055458;28;20030;-60
2023/07/11 18:32:23;;;;;;;8.73;3.63;;;32.90;61.90;;;;;;10064132;28;20048;-62
2023/07/11 18:37:15;;;;;;;;;;;32.70;62.80;;;;;;10061785;28;20037;-61
2023/07/11 18:42:20;;;;;;;8.48;4.70;;;32.00;64.70;;;;;;10060434;28;20175;-59
2023/07/11 18:47:23;;;;;;;10.80;5.18;;;31.20;67.70;;;;;;10056796;28;20059;-60
2023/07/11 18:52:16;;;;;;;18.85;5.47;;;28.70;73.60;;;;;;10051918;28;20146;-65
2023/07/11 18:57:14;;;;;;;10.30;6.15;;;26.20;93.60;;;;;;10062037;28;20033;-67
2023/07/11 19:02:14;;;;;;;10.35;6.30;;;25.70;99.90;;;;;;10059463;28;20029;-68
2023/07/11 19:07:05;;;;;;;11.07;6.00;;;25.90;99.90;;;;;;10047452;28;20381;-68
2023/07/11 19:11:55;;;;;;;9.38;5.75;;;25.80;99.90;;;;;;10058538;28;20040;-68
2023/07/11 19:16:46;;;;;;;9.05;6.65;;;26.10;99.90;;;;;;10059979;28;20045;-68
2023/07/11 19:21:37;;;;;;;7.32;5.82;;;26.30;99.90;;;;;;10056316;28;20029;-68
2023/07/11 19:26:27;;;;;;;9.95;5.75;;;26.70;99.90;;;;;;10061374;28;20060;-69
2023/07/11 19:31:18;;;;;;;5.72;4.57;;;27.40;99.90;;;;;;10064290;28;20028;-70
2023/07/11 19:36:19;;;;;;;9.05;4.35;;;27.80;99.90;;;;;;10058290;28;20041;-70
2023/07/11 19:41:11;;;;;;;9.02;5.63;;;28.00;99.90;;;;;;10058915;28;20034;-68
2023/07/11 19:46:04;;;;;;;7.32;4.70;;;28.00;99.90;;;;;;10053198;28;20259;-67
2023/07/11 19:51:00;;;;;;;10.65;5.15;;;28.00;99.90;;;;;;10046369;28;20049;-67
2023/07/11 19:55:54;;;;;;;10.68;5.18;;;27.90;99.90;;;;;;10054988;28;20218;-68
2023/07/11 20:00:48;;;;;;;11.00;6.28;;;27.40;99.90;;;;;;10056791;28;20100;-68
2023/07/11 20:05:40;;;;;;;8.95;5.25;;;27.60;99.90;;;;;;10033041;28;20099;-68
2023/07/11 20:10:40;;;;;;;12.35;5.45;;;27.70;99.90;;;;;;10045515;28;20034;-70
2023/07/11 20:15:33;;;;;;;7.70;5.25;;;27.80;99.90;;;;;;10056704;28;20028;-68
2023/07/11 20:20:33;;;;;;;10.45;6.10;;;27.70;99.90;;;;;;10052594;28;20487;-70
2023/07/11 20:25:24;;;;;;;9.63;5.25;;;27.60;99.90;;;;;;10058786;28;20079;-70
2023/07/11 20:30:21;;;;;;;8.63;5.30;;;27.60;99.90;;;;;;10054374;28;20055;-69
2023/07/11 20:35:12;;;;;;;7.13;5.07;;;27.80;99.90;;;;;;10055243;28;20408;-70
2023/07/11 20:40:03;;;;;;;9.95;3.85;;;27.70;99.90;;;;;;10056099;28;20026;-69
2023/07/11 20:44:53;;;;;;;5.47;3.85;;;27.70;99.90;;;;;;10060440;28;20052;-69
2023/07/11 20:49:44;;;;;;;6.50;4.18;;;27.70;99.90;;;;;;10051841;28;20030;-69
2023/07/11 20:54:35;;;;;;;9.10;5.43;;;27.60;99.90;;;;;;10058670;28;20116;-69
2023/07/11 20:59:25;;;;;;;7.97;4.40;;;27.40;99.90;;;;;;10056712;28;20113;-69
2023/07/11 21:04:16;;;;;;;4.60;4.10;;;27.40;99.90;;;;;;10061873;28;20088;-70
2023/07/11 21:09:13;;;;;;;6.75;4.32;;;27.30;99.90;;;;;;10070173;28;20049;-66
2023/07/11 21:14:03;;;;;;;6.60;3.58;;;27.40;99.90;;;;;;10064975;28;20331;-69
2023/07/11 21:18:56;;;;;;;6.13;4.53;;;27.20;99.90;;;;;;10066813;28;20030;-68
2023/07/11 21:23:47;;;;;;;5.03;3.70;;;27.00;99.90;;;;;;10064024;28;20048;-69
2023/07/11 21:28:37;;;;;;;5.57;3.53;;;26.90;99.90;;;;;;10064825;28;20216;-67
2023/07/11 21:33:29;;;;;;;7.68;4.05;;;26.80;99.90;;;;;;10068490;28;20025;-67
2023/07/11 21:38:25;;;;;;;6.78;3.38;;;26.80;99.90;;;;;;10088530;28;20326;-67
2023/07/11 21:43:15;;;;;;;5.07;2.90;;;26.70;99.90;;;;;;10055328;28;20056;-67
2023/07/11 21:48:20;;;;;;;4.45;2.75;;;26.60;99.90;;;;;;10070225;28;20029;-67
2023/07/11 21:53:13;;;;;;;3.47;2.53;;;26.60;99.90;;;;;;10052101;28;20025;-68
2023/07/11 21:58:04;;;;;;;5.30;2.40;;;26.60;99.90;;;;;;10060959;28;20029;-66
2023/07/11 22:02:55;;;;;;;4.55;2.25;;;26.70;99.90;;;;;;10058350;28;20136;-69
2023/07/11 22:07:45;;;;;;;3.92;2.75;;;26.50;99.90;;;;;;10063326;28;20037;-67
2023/07/11 22:12:36;;;;;;;3.35;2.40;;;26.60;99.90;;;;;;10058450;28;20503;-68
2023/07/11 22:17:27;;;;;;;4.47;2.05;;;26.50;99.90;;;;;;10055277;28;20124;-66
2023/07/11 22:22:17;;;;;;;3.65;2.40;;;26.50;99.90;;;;;;10058058;28;20045;-67
2023/07/11 22:27:11;;;;;;;3.58;1.77;;;26.40;99.90;;;;;;10071677;28;20120;-66
2023/07/11 22:32:01;;;;;;;4.65;2.50;;;26.40;99.90;;;;;;10054394;28;20056;-70
2023/07/11 22:36:52;;;;;;;3.83;1.90;;;26.40;99.90;;;;;;10060973;28;20087;-70
2023/07/11 22:41:43;;;;;;;3.08;1.98;;;26.20;99.90;;;;;;10055304;28;20049;-67
2023/07/11 22:46:33;;;;;;;5.65;1.73;;;26.10;99.90;;;;;;10060880;28;20601;-67
2023/07/11 22:51:24;;;;;;;5.50;2.38;;;26.10;99.90;;;;;;10052411;28;20348;-66
2023/07/11 22:56:22;;;;;;;8.52;2.40;;;26.20;99.90;;;;;;10060711;28;20120;-66
2023/07/11 23:01:16;;;;;;;3.05;2.30;;;26.20;99.90;;;;;;10068159;28;20083;-66
2023/07/11 23:06:19;;;;;;;2.75;2.42;;;26.20;99.90;;;;;;10062818;28;20474;-69
2023/07/11 23:11:13;;;;;;;4.88;1.80;;;26.10;99.90;;;;;;10063482;28;20447;-66
2023/07/11 23:16:09;;;;;;;4.68;1.92;;;26.00;99.90;;;;;;10061273;28;20056;-70
2023/07/11 23:21:00;;;;;;;4.72;2.22;;;26.00;99.90;;;;;;10058943;28;20029;-67
2023/07/11 23:25:52;;;;;;;3.63;2.00;;;25.90;99.90;;;;;;10058395;28;20399;-69
2023/07/11 23:30:43;;;;;;;6.65;2.65;;;26.00;99.90;;;;;;10058190;28;20028;-70
2023/07/11 23:35:34;;;;;;;2.50;1.63;;;26.00;99.90;;;;;;10060379;28;20057;-65
2023/07/11 23:40:32;;;;;;;2.35;1.75;;;25.90;99.90;;;;;;10058862;28;20104;-68
2023/07/11 23:45:24;;;;;;;4.20;1.88;;;25.80;99.90;;;;;;10056794;28;20037;-67
2023/07/11 23:50:20;;;;;;;5.13;2.28;;;25.90;99.90;;;;;;10051339;28;20322;-65
2023/07/11 23:55:12;;;;;;;5.55;1.55;;;25.80;99.90;;;;;;10057632;28;20442;-68
